sensor_id;sensor_type;location;lat;lon;timestamp;pressure;altitude;pressure_sealevel;temperature;humidity
4398;BME280;2213;49.720;7.296;2022-09-09T00:00:53;97637.84;;;16.32;100.00
4398;BME280;2213;49.720;7.296;2022-09-09T00:03:27;97639.69;;;16.32;100.00
4398;BME280;2213;49.720;7.296;2022-09-09T00:06:07;97642.09;;;16.33;100.00
4398;BME280;2213;49.720;7.296;2022-09-09T00:08:52;97634.41;;;16.32;100.00
4398;BME280;2213;49.720;7.296;2022-09-09T00:11:31;97627.78;;;16.29;100.00
4398;BME280;2213;49.720;7.296;2022-09-09T00:14:14;97623.91;;;16.20;100.00
4398;BME280;2213;49.720;7.296;2022-09-09T00:16:55;97625.06;;;16.13;100.00
4398;BME280;2213;49.720;7.296;2022-09-09T00:19:31;97619.91;;;16.06;100.00
4398;BME280;2213;49.720;7.296;2022-09-09T00:22:15;97617.75;;;16.03;100.00
4398;BME280;2213;49.720;7.296;2022-09-09T00:24:46;97626.47;;;16.03;100.00
4398;BME280;2213;49.720;7.296;2022-09-09T00:27:26;97620.84;;;16.00;100.00
4398;BME280;2213;49.720;7.296;2022-09-09T00:30:13;97616.81;;;15.97;100.00
4398;BME280;2213;49.720;7.296;2022-09-09T00:32:45;97615.91;;;15.92;100.00
4398;BME280;2213;49.720;7.296;2022-09-09T00:35:22;97618.56;;;15.92;100.00
4398;BME280;2213;49.720;7.296;2022-09-09T00:41:09;97623.56;;;15.93;100.00
4398;BME280;2213;49.720;7.296;2022-09-09T00:43:41;97624.97;;;15.96;100.00
4398;BME280;2213;49.720;7.296;2022-09-09T00:46:51;97608.69;;;15.99;100.00
4398;BME280;2213;49.720;7.296;2022-09-09T00:49:35;97613.50;;;16.02;100.00
4398;BME280;2213;49.720;7.296;2022-09-09T00:52:25;97602.47;;;16.05;100.00
4398;BME280;2213;49.720;7.296;2022-09-09T00:55:07;97609.38;;;16.06;100.00
4398;BME280;2213;49.720;7.296;2022-09-09T00:57:40;97612.00;;;16.06;100.00
4398;BME280;2213;49.720;7.296;2022-09-09T01:00:21;97604.09;;;16.06;100.00
4398;BME280;2213;49.720;7.296;2022-09-09T01:03:14;97612.69;;;16.01;100.00
4398;BME280;2213;49.720;7.296;2022-09-09T01:06:01;97619.78;;;16.01;100.00
4398;BME280;2213;49.720;7.296;2022-09-09T01:08:52;97622.22;;;16.02;100.00
4398;BME280;2213;49.720;7.296;2022-09-09T01:11:32;97618.91;;;15.95;100.00
4398;BME280;2213;49.720;7.296;2022-09-09T01:14:16;97618.78;;;15.90;100.00
4398;BME280;2213;49.720;7.296;2022-09-09T01:16:47;97630.81;;;15.86;100.00
4398;BME280;2213;49.720;7.296;2022-09-09T01:19:30;97627.28;;;15.81;100.00
4398;BME280;2213;49.720;7.296;2022-09-09T01:22:17;97629.09;;;15.80;100.00
4398;BME280;2213;49.720;7.296;2022-09-09T01:25:20;97628.88;;;15.82;100.00
4398;BME280;2213;49.720;7.296;2022-09-09T01:27:59;97622.00;;;15.81;100.00
4398;BME280;2213;49.720;7.296;2022-09-09T01:30:30;97620.38;;;15.80;100.00
4398;BME280;2213;49.720;7.296;2022-09-09T01:32:59;97623.03;;;15.80;100.00
4398;BME280;2213;49.720;7.296;2022-09-09T01:35:42;97629.69;;;15.82;100.00
4398;BME280;2213;49.720;7.296;2022-09-09T01:38:14;97625.56;;;15.75;100.00
4398;BME280;2213;49.720;7.296;2022-09-09T01:40:44;97633.22;;;15.76;100.00
4398;BME280;2213;49.720;7.296;2022-09-09T01:43:15;97634.03;;;15.77;100.00
4398;BME280;2213;49.720;7.296;2022-09-09T01:45:46;97630.38;;;15.78;100.00
4398;BME280;2213;49.720;7.296;2022-09-09T01:48:17;97633.34;;;15.81;100.00
4398;BME280;2213;49.720;7.296;2022-09-09T01:50:47;97635.19;;;15.81;100.00
4398;BME280;2213;49.720;7.296;2022-09-09T01:53:17;97635.19;;;15.81;100.00
4398;BME280;2213;49.720;7.296;2022-09-09T01:55:59;97636.22;;;15.80;100.00
4398;BME280;2213;49.720;7.296;2022-09-09T01:58:47;97640.66;;;15.79;100.00
4398;BME280;2213;49.720;7.296;2022-09-09T02:01:33;97632.88;;;15.84;100.00
4398;BME280;2213;49.720;7.296;2022-09-09T02:04:20;97620.03;;;15.88;100.00
4398;BME280;2213;49.720;7.296;2022-09-09T02:06:55;97626.34;;;15.87;100.00
4398;BME280;2213;49.720;7.296;2022-09-09T02:09:29;97629.56;;;15.89;100.00
4398;BME280;2213;49.720;7.296;2022-09-09T02:12:13;97620.38;;;15.91;100.00
4398;BME280;2213;49.720;7.296;2022-09-09T02:14:51;97622.22;;;15.91;100.00
4398;BME280;2213;49.720;7.296;2022-09-09T02:17:30;97612.47;;;15.91;100.00
4398;BME280;2213;49.720;7.296;2022-09-09T02:20:07;97603.88;;;15.96;100.00
4398;BME280;2213;49.720;7.296;2022-09-09T02:22:42;97598.94;;;15.99;100.00
4398;BME280;2213;49.720;7.296;2022-09-09T02:25:18;97594.91;;;15.97;100.00
4398;BME280;2213;49.720;7.296;2022-09-09T02:27:50;97601.25;;;15.96;100.00
4398;BME280;2213;49.720;7.296;2022-09-09T02:30:21;97588.28;;;15.94;100.00
4398;BME280;2213;49.720;7.296;2022-09-09T02:32:54;97594.56;;;15.93;100.00
4398;BME280;2213;49.720;7.296;2022-09-09T02:35:26;97587.47;;;15.94;100.00
4398;BME280;2213;49.720;7.296;2022-09-09T02:38:04;97593.78;;;15.93;100.00
4398;BME280;2213;49.720;7.296;2022-09-09T02:40:34;97605.84;;;15.89;100.00
4398;BME280;2213;49.720;7.296;2022-09-09T02:43:03;97606.38;;;15.91;100.00
4398;BME280;2213;49.720;7.296;2022-09-09T02:45:44;97605.13;;;15.93;100.00
4398;BME280;2213;49.720;7.296;2022-09-09T02:48:30;97606.97;;;15.93;100.00
4398;BME280;2213;49.720;7.296;2022-09-09T02:51:10;97612.25;;;15.93;100.00
4398;BME280;2213;49.720;7.296;2022-09-09T02:53:50;97620.25;;;15.98;100.00
4398;BME280;2213;49.720;7.296;2022-09-09T02:56:29;97626.13;;;16.00;100.00
4398;BME280;2213;49.720;7.296;2022-09-09T02:59:03;97626.69;;;16.02;100.00
4398;BME280;2213;49.720;7.296;2022-09-09T03:01:34;97618.31;;;16.05;100.00
4398;BME280;2213;49.720;7.296;2022-09-09T03:04:04;97618.31;;;16.05;100.00
4398;BME280;2213;49.720;7.296;2022-09-09T03:06:33;97604.88;;;16.06;100.00
4398;BME280;2213;49.720;7.296;2022-09-09T03:09:02;97609.38;;;16.06;100.00
4398;BME280;2213;49.720;7.296;2022-09-09T03:11:32;97611.75;;;16.07;100.00
4398;BME280;2213;49.720;7.296;2022-09-09T03:14:02;97612.34;;;16.09;100.00
4398;BME280;2213;49.720;7.296;2022-09-09T03:16:31;97612.56;;;16.08;100.00
4398;BME280;2213;49.720;7.296;2022-09-09T03:19:02;97607.06;;;16.09;100.00
4398;BME280;2213;49.720;7.296;2022-09-09T03:21:31;97599.94;;;16.10;100.00
4398;BME280;2213;49.720;7.296;2022-09-09T03:24:00;97614.50;;;16.13;100.00
4398;BME280;2213;49.720;7.296;2022-09-09T03:26:30;97601.53;;;16.11;100.00
4398;BME280;2213;49.720;7.296;2022-09-09T03:28:59;97606.34;;;16.14;100.00
4398;BME280;2213;49.720;7.296;2022-09-09T03:31:29;97597.88;;;16.12;100.00
4398;BME280;2213;49.720;7.296;2022-09-09T03:33:58;97596.25;;;16.11;100.00
4398;BME280;2213;49.720;7.296;2022-09-09T03:36:29;97597.88;;;16.12;100.00
4398;BME280;2213;49.720;7.296;2022-09-09T03:38:58;97605.22;;;16.10;100.00
4398;BME280;2213;49.720;7.296;2022-09-09T03:41:27;97610.03;;;16.13;100.00
4398;BME280;2213;49.720;7.296;2022-09-09T03:43:56;97607.16;;;16.15;100.00
4398;BME280;2213;49.720;7.296;2022-09-09T03:46:26;97606.47;;;16.19;100.00
4398;BME280;2213;49.720;7.296;2022-09-09T03:48:54;97609.09;;;16.19;100.00
4398;BME280;2213;49.720;7.296;2022-09-09T03:51:24;97611.72;;;16.19;100.00
4398;BME280;2213;49.720;7.296;2022-09-09T03:53:54;97613.91;;;16.22;100.00
4398;BME280;2213;49.720;7.296;2022-09-09T03:56:24;97608.63;;;16.22;100.00
4398;BME280;2213;49.720;7.296;2022-09-09T03:58:52;97604.50;;;16.26;100.00
4398;BME280;2213;49.720;7.296;2022-09-09T04:01:21;97605.28;;;16.27;100.00
4398;BME280;2213;49.720;7.296;2022-09-09T04:03:50;97600.81;;;16.27;100.00
4398;BME280;2213;49.720;7.296;2022-09-09T04:06:19;97607.69;;;16.28;100.00
4398;BME280;2213;49.720;7.296;2022-09-09T04:08:48;97603.22;;;16.29;100.00
4398;BME280;2213;49.720;7.296;2022-09-09T04:11:19;97599.75;;;16.28;100.00
4398;BME280;2213;49.720;7.296;2022-09-09T04:13:48;97608.03;;;16.32;100.00
4398;BME280;2213;49.720;7.296;2022-09-09T04:16:18;97605.63;;;16.30;100.00
4398;BME280;2213;49.720;7.296;2022-09-09T04:18:47;97607.25;;;16.31;100.00
4398;BME280;2213;49.720;7.296;2022-09-09T04:21:16;97612.28;;;16.33;100.00
4398;BME280;2213;49.720;7.296;2022-09-09T04:23:45;97615.38;;;16.30;100.00
4398;BME280;2213;49.720;7.296;2022-09-09T04:26:14;97613.78;;;16.29;100.00
4398;BME280;2213;49.720;7.296;2022-09-09T04:28:45;97615.84;;;16.27;100.00
4398;BME280;2213;49.720;7.296;2022-09-09T04:31:18;97610.25;;;16.23;100.00
4398;BME280;2213;49.720;7.296;2022-09-09T04:33:48;97619.19;;;16.22;100.00
4398;BME280;2213;49.720;7.296;2022-09-09T04:36:19;97617.00;;;16.19;100.00
4398;BME280;2213;49.720;7.296;2022-09-09T04:38:47;97616.00;;;16.20;100.00
4398;BME280;2213;49.720;7.296;2022-09-09T04:41:16;97604.63;;;16.20;100.00
4398;BME280;2213;49.720;7.296;2022-09-09T04:43:47;97615.88;;;16.15;100.00
4398;BME280;2213;49.720;7.296;2022-09-09T04:46:16;97613.00;;;16.17;100.00
4398;BME280;2213;49.720;7.296;2022-09-09T04:48:45;97623.78;;;16.15;100.00
4398;BME280;2213;49.720;7.296;2022-09-09T04:51:14;97622.63;;;16.11;100.00
4398;BME280;2213;49.720;7.296;2022-09-09T04:53:43;97626.34;;;16.10;100.00
4398;BME280;2213;49.720;7.296;2022-09-09T04:56:16;97620.00;;;16.11;100.00
4398;BME280;2213;49.720;7.296;2022-09-09T04:58:46;97616.34;;;16.12;100.00
4398;BME280;2213;49.720;7.296;2022-09-09T05:01:18;97617.28;;;16.06;100.00
4398;BME280;2213;49.720;7.296;2022-09-09T05:03:47;97626.00;;;16.06;100.00
4398;BME280;2213;49.720;7.296;2022-09-09T05:06:19;97624.13;;;16.07;100.00
4398;BME280;2213;49.720;7.296;2022-09-09T05:08:49;97617.28;;;16.06;100.00
4398;BME280;2213;49.720;7.296;2022-09-09T05:11:21;97624.03;;;16.02;100.00
4398;BME280;2213;49.720;7.296;2022-09-09T05:13:53;97625.66;;;16.03;100.00
4398;BME280;2213;49.720;7.296;2022-09-09T05:16:23;97622.44;;;16.01;100.00
4398;BME280;2213;49.720;7.296;2022-09-09T05:18:52;97618.78;;;16.02;100.00
4398;BME280;2213;49.720;7.296;2022-09-09T05:21:24;97626.22;;;16.05;100.00
4398;BME280;2213;49.720;7.296;2022-09-09T05:23:53;97636.75;;;16.05;100.00
4398;BME280;2213;49.720;7.296;2022-09-09T05:26:22;97636.88;;;16.10;100.00
4398;BME280;2213;49.720;7.296;2022-09-09T05:28:52;97645.34;;;16.12;100.00
4398;BME280;2213;49.720;7.296;2022-09-09T05:31:22;97639.06;;;16.13;100.00
4398;BME280;2213;49.720;7.296;2022-09-09T05:33:54;97647.53;;;16.15;100.00
4398;BME280;2213;49.720;7.296;2022-09-09T05:36:23;97648.88;;;16.18;100.00
4398;BME280;2213;49.720;7.296;2022-09-09T05:38:52;97654.16;;;16.18;100.00
4398;BME280;2213;49.720;7.296;2022-09-09T05:41:22;97645.56;;;16.22;100.00
4398;BME280;2213;49.720;7.296;2022-09-09T05:43:52;97658.53;;;16.24;100.00
4398;BME280;2213;49.720;7.296;2022-09-09T05:46:22;97652.47;;;16.23;100.00
4398;BME280;2213;49.720;7.296;2022-09-09T05:48:53;97654.06;;;16.24;100.00
4398;BME280;2213;49.720;7.296;2022-09-09T05:51:24;97663.09;;;16.28;100.00
4398;BME280;2213;49.720;7.296;2022-09-09T05:53:53;97655.66;;;16.25;100.00
4398;BME280;2213;49.720;7.296;2022-09-09T05:56:27;97657.81;;;16.28;100.00
4398;BME280;2213;49.720;7.296;2022-09-09T05:58:58;97661.59;;;16.32;100.00
4398;BME280;2213;49.720;7.296;2022-09-09T06:01:29;97670.66;;;16.36;100.00
4398;BME280;2213;49.720;7.296;2022-09-09T06:03:58;97666.75;;;16.39;100.00
4398;BME280;2213;49.720;7.296;2022-09-09T06:06:32;97665.50;;;16.41;100.00
4398;BME280;2213;49.720;7.296;2022-09-09T06:09:06;97665.03;;;16.44;100.00
4398;BME280;2213;49.720;7.296;2022-09-09T06:11:38;97659.28;;;16.47;100.00
4398;BME280;2213;49.720;7.296;2022-09-09T06:14:09;97657.19;;;16.49;100.00
4398;BME280;2213;49.720;7.296;2022-09-09T06:16:38;97658.34;;;16.53;100.00
4398;BME280;2213;49.720;7.296;2022-09-09T06:19:09;97656.31;;;16.55;100.00
4398;BME280;2213;49.720;7.296;2022-09-09T06:21:39;97653.22;;;16.58;100.00
4398;BME280;2213;49.720;7.296;2022-09-09T06:24:08;97647.44;;;16.62;100.00
4398;BME280;2213;49.720;7.296;2022-09-09T06:26:39;97651.22;;;16.66;100.00
4398;BME280;2213;49.720;7.296;2022-09-09T06:29:10;97640.19;;;16.69;100.00
4398;BME280;2213;49.720;7.296;2022-09-09T06:31:39;97649.47;;;16.71;100.00
4398;BME280;2213;49.720;7.296;2022-09-09T06:34:09;97650.03;;;16.73;100.00
4398;BME280;2213;49.720;7.296;2022-09-09T06:36:39;97646.94;;;16.76;100.00
4398;BME280;2213;49.720;7.296;2022-09-09T06:39:08;97651.97;;;16.78;100.00
4398;BME280;2213;49.720;7.296;2022-09-09T06:41:41;97653.59;;;16.79;100.00
4398;BME280;2213;49.720;7.296;2022-09-09T06:44:12;97650.47;;;16.82;100.00
4398;BME280;2213;49.720;7.296;2022-09-09T06:46:40;97649.19;;;16.84;100.00
4398;BME280;2213;49.720;7.296;2022-09-09T06:49:09;97648.97;;;16.86;100.00
4398;BME280;2213;49.720;7.296;2022-09-09T06:51:39;97649.50;;;16.88;100.00
4398;BME280;2213;49.720;7.296;2022-09-09T06:54:11;97654.91;;;16.93;100.00
4398;BME280;2213;49.720;7.296;2022-09-09T06:56:42;97652.00;;;16.94;100.00
4398;BME280;2213;49.720;7.296;2022-09-09T06:59:13;97657.28;;;16.94;100.00
4398;BME280;2213;49.720;7.296;2022-09-09T07:01:43;97657.06;;;16.96;100.00
4398;BME280;2213;49.720;7.296;2022-09-09T07:04:15;97665.00;;;16.96;100.00
4398;BME280;2213;49.720;7.296;2022-09-09T07:06:46;97660.84;;;17.00;100.00
4398;BME280;2213;49.720;7.296;2022-09-09T07:09:16;97655.31;;;17.01;100.00
4398;BME280;2213;49.720;7.296;2022-09-09T07:11:48;97659.00;;;17.00;100.00
4398;BME280;2213;49.720;7.296;2022-09-09T07:14:21;97655.63;;;17.05;100.00
4398;BME280;2213;49.720;7.296;2022-09-09T07:16:49;97664.94;;;17.07;100.00
4398;BME280;2213;49.720;7.296;2022-09-09T07:19:23;97663.66;;;17.10;100.00
4398;BME280;2213;49.720;7.296;2022-09-09T07:21:51;97655.47;;;17.11;100.00
4398;BME280;2213;49.720;7.296;2022-09-09T07:24:20;97652.63;;;17.13;100.00
4398;BME280;2213;49.720;7.296;2022-09-09T07:26:49;97673.19;;;17.11;100.00
4398;BME280;2213;49.720;7.296;2022-09-09T07:29:21;97662.06;;;17.09;100.00
4398;BME280;2213;49.720;7.296;2022-09-09T07:31:50;97663.41;;;17.11;100.00
4398;BME280;2213;49.720;7.296;2022-09-09T07:34:19;97666.84;;;17.12;100.00
4398;BME280;2213;49.720;7.296;2022-09-09T07:36:48;97677.91;;;17.09;100.00
4398;BME280;2213;49.720;7.296;2022-09-09T07:39:18;97674.47;;;17.08;100.00
4398;BME280;2213;49.720;7.296;2022-09-09T07:41:49;97677.09;;;17.08;100.00
4398;BME280;2213;49.720;7.296;2022-09-09T07:44:23;97669.44;;;17.07;100.00
4398;BME280;2213;49.720;7.296;2022-09-09T07:46:52;97673.09;;;17.06;100.00
4398;BME280;2213;49.720;7.296;2022-09-09T07:49:21;97679.34;;;17.00;100.00
4398;BME280;2213;49.720;7.296;2022-09-09T07:51:57;97675.31;;;16.97;100.00
4398;BME280;2213;49.720;7.296;2022-09-09T07:54:25;97674.75;;;16.95;100.00
4398;BME280;2213;49.720;7.296;2022-09-09T07:56:54;97675.78;;;16.94;100.00
4398;BME280;2213;49.720;7.296;2022-09-09T07:59:24;97683.47;;;16.96;100.00
4398;BME280;2213;49.720;7.296;2022-09-09T08:01:54;97676.59;;;16.95;100.00
4398;BME280;2213;49.720;7.296;2022-09-09T08:04:25;97680.84;;;16.96;100.00
4398;BME280;2213;49.720;7.296;2022-09-09T08:06:58;97676.59;;;16.95;100.00
4398;BME280;2213;49.720;7.296;2022-09-09T08:09:28;97681.66;;;16.96;100.00
4398;BME280;2213;49.720;7.296;2022-09-09T08:11:57;97687.50;;;16.98;100.00
4398;BME280;2213;49.720;7.296;2022-09-09T08:14:28;97695.66;;;16.97;100.00
4398;BME280;2213;49.720;7.296;2022-09-09T08:16:57;97690.13;;;16.98;100.00
4398;BME280;2213;49.720;7.296;2022-09-09T08:19:26;97692.88;;;17.03;100.00
4398;BME280;2213;49.720;7.296;2022-09-09T08:21:58;97698.56;;;17.12;100.00
4398;BME280;2213;49.720;7.296;2022-09-09T08:24:28;97693.59;;;17.16;100.00
4398;BME280;2213;49.720;7.296;2022-09-09T08:26:57;97691.53;;;17.18;100.00
4398;BME280;2213;49.720;7.296;2022-09-09T08:29:28;97694.41;;;17.16;100.00
4398;BME280;2213;49.720;7.296;2022-09-09T08:31:58;97693.47;;;17.22;100.00
4398;BME280;2213;49.720;7.296;2022-09-09T08:34:27;97696.19;;;17.27;100.00
4398;BME280;2213;49.720;7.296;2022-09-09T08:36:57;97701.00;;;17.30;100.00
4398;BME280;2213;49.720;7.296;2022-09-09T08:39:26;97698.47;;;17.35;100.00
4398;BME280;2213;49.720;7.296;2022-09-09T08:42:32;97697.25;;;17.43;100.00
4398;BME280;2213;49.720;7.296;2022-09-09T08:45:29;97694.44;;;17.49;100.00
4398;BME280;2213;49.720;7.296;2022-09-09T08:48:28;97698.22;;;17.53;100.00
4398;BME280;2213;49.720;7.296;2022-09-09T08:51:04;97702.69;;;17.53;100.00
4398;BME280;2213;49.720;7.296;2022-09-09T08:53:42;97694.34;;;17.56;100.00
4398;BME280;2213;49.720;7.296;2022-09-09T08:56:16;97697.31;;;17.59;100.00
4398;BME280;2213;49.720;7.296;2022-09-09T08:58:49;97709.25;;;17.62;100.00
4398;BME280;2213;49.720;7.296;2022-09-09T09:01:42;97690.88;;;17.55;100.00
4398;BME280;2213;49.720;7.296;2022-09-09T09:04:38;97688.41;;;17.66;100.00
4398;BME280;2213;49.720;7.296;2022-09-09T09:07:24;97690.03;;;17.67;100.00
4398;BME280;2213;49.720;7.296;2022-09-09T09:10:09;97693.22;;;17.69;100.00
4398;BME280;2213;49.720;7.296;2022-09-09T09:13:02;97702.19;;;17.68;100.00
4398;BME280;2213;49.720;7.296;2022-09-09T09:15:36;97703.84;;;17.74;100.00
4398;BME280;2213;49.720;7.296;2022-09-09T09:18:12;97698.66;;;17.79;100.00
4398;BME280;2213;49.720;7.296;2022-09-09T09:20:55;97697.69;;;17.85;100.00
4398;BME280;2213;49.720;7.296;2022-09-09T09:23:35;97692.53;;;17.95;100.00
4398;BME280;2213;49.720;7.296;2022-09-09T09:26:09;97682.91;;;18.05;100.00
4398;BME280;2213;49.720;7.296;2022-09-09T09:28:40;97676.72;;;18.17;100.00
4398;BME280;2213;49.720;7.296;2022-09-09T09:31:11;97682.59;;;18.19;100.00
4398;BME280;2213;49.720;7.296;2022-09-09T09:33:49;97681.47;;;18.15;100.00
4398;BME280;2213;49.720;7.296;2022-09-09T09:36:24;97683.16;;;18.04;100.00
4398;BME280;2213;49.720;7.296;2022-09-09T09:38:57;97686.53;;;17.99;100.00
4398;BME280;2213;49.720;7.296;2022-09-09T09:41:47;97680.53;;;18.04;100.00
4398;BME280;2213;49.720;7.296;2022-09-09T09:44:25;97688.34;;;18.16;100.00
4398;BME280;2213;49.720;7.296;2022-09-09T09:47:07;97688.13;;;18.17;100.00
4398;BME280;2213;49.720;7.296;2022-09-09T09:49:38;97681.78;;;18.18;100.00
4398;BME280;2213;49.720;7.296;2022-09-09T09:52:13;97688.66;;;18.19;100.00
4398;BME280;2213;49.720;7.296;2022-09-09T09:54:46;97686.59;;;18.21;100.00
4398;BME280;2213;49.720;7.296;2022-09-09T09:57:16;97687.06;;;18.18;100.00
4398;BME280;2213;49.720;7.296;2022-09-09T09:59:46;97673.97;;;18.28;100.00
4398;BME280;2213;49.720;7.296;2022-09-09T10:02:19;97673.41;;;18.26;100.00
4398;BME280;2213;49.720;7.296;2022-09-09T10:05:03;97666.56;;;18.30;100.00
4398;BME280;2213;49.720;7.296;2022-09-09T10:07:32;97661.78;;;18.27;100.00
4398;BME280;2213;49.720;7.296;2022-09-09T10:10:01;97660.13;;;18.21;100.00
4398;BME280;2213;49.720;7.296;2022-09-09T10:12:46;97667.63;;;18.29;100.00
4398;BME280;2213;49.720;7.296;2022-09-09T10:15:37;97652.34;;;18.36;100.00
4398;BME280;2213;49.720;7.296;2022-09-09T10:18:30;97657.41;;;18.38;100.00
4398;BME280;2213;49.720;7.296;2022-09-09T10:21:20;97659.56;;;18.41;100.00
4398;BME280;2213;49.720;7.296;2022-09-09T10:24:26;97673.69;;;18.46;100.00
4398;BME280;2213;49.720;7.296;2022-09-09T10:27:05;97681.63;;;18.46;100.00
4398;BME280;2213;49.720;7.296;2022-09-09T10:30:00;97685.19;;;18.35;100.00
4398;BME280;2213;49.720;7.296;2022-09-09T10:32:46;97686.31;;;18.39;100.00
4398;BME280;2213;49.720;7.296;2022-09-09T10:35:31;97692.00;;;18.31;100.00
4398;BME280;2213;49.720;7.296;2022-09-09T10:38:16;97697.22;;;18.26;100.00
4398;BME280;2213;49.720;7.296;2022-09-09T10:41:16;97713.47;;;18.13;100.00
4398;BME280;2213;49.720;7.296;2022-09-09T10:44:17;97702.63;;;18.15;100.00
4398;BME280;2213;49.720;7.296;2022-09-09T10:47:18;97690.63;;;18.07;100.00
4398;BME280;2213;49.720;7.296;2022-09-09T10:50:16;97695.28;;;18.00;100.00
4398;BME280;2213;49.720;7.296;2022-09-09T10:52:58;97681.56;;;18.03;100.00
4398;BME280;2213;49.720;7.296;2022-09-09T10:55:37;97682.28;;;17.98;100.00
4398;BME280;2213;49.720;7.296;2022-09-09T10:58:13;97674.34;;;17.98;100.00
4398;BME280;2213;49.720;7.296;2022-09-09T11:00:51;97671.69;;;17.98;100.00
4398;BME280;2213;49.720;7.296;2022-09-09T11:03:28;97673.78;;;17.96;100.00
4398;BME280;2213;49.720;7.296;2022-09-09T11:06:04;97655.19;;;17.91;100.00
4398;BME280;2213;49.720;7.296;2022-09-09T11:08:38;97656.00;;;17.92;100.00
4398;BME280;2213;49.720;7.296;2022-09-09T11:11:15;97657.84;;;17.91;100.00
4398;BME280;2213;49.720;7.296;2022-09-09T11:13:54;97657.59;;;17.93;100.00
4398;BME280;2213;49.720;7.296;2022-09-09T11:16:30;97659.53;;;17.97;100.00
4398;BME280;2213;49.720;7.296;2022-09-09T11:19:11;97667.22;;;17.99;100.00
4398;BME280;2213;49.720;7.296;2022-09-09T11:21:47;97659.84;;;18.01;100.00
4398;BME280;2213;49.720;7.296;2022-09-09T11:24:23;97658.88;;;18.07;100.00
4398;BME280;2213;49.720;7.296;2022-09-09T11:27:01;97657.75;;;18.03;100.00
4398;BME280;2213;49.720;7.296;2022-09-09T11:30:13;97652.09;;;18.16;100.00
4398;BME280;2213;49.720;7.296;2022-09-09T11:33:46;97644.72;;;18.18;100.00
4398;BME280;2213;49.720;7.296;2022-09-09T11:39:46;97646.69;;;18.49;100.00
4398;BME280;2213;49.720;7.296;2022-09-09T11:42:21;97653.19;;;18.58;100.00
4398;BME280;2213;49.720;7.296;2022-09-09T11:44:51;97650.09;;;18.67;100.00
4398;BME280;2213;49.720;7.296;2022-09-09T11:47:25;97651.22;;;18.71;100.00
4398;BME280;2213;49.720;7.296;2022-09-09T11:50:27;97650.22;;;18.77;100.00
4398;BME280;2213;49.720;7.296;2022-09-09T11:53:18;97648.97;;;18.84;100.00
4398;BME280;2213;49.720;7.296;2022-09-09T11:56:13;97645.06;;;18.92;100.00
4398;BME280;2213;49.720;7.296;2022-09-09T11:58:59;97641.97;;;19.00;100.00
4398;BME280;2213;49.720;7.296;2022-09-09T12:01:38;97634.59;;;19.02;100.00
4398;BME280;2213;49.720;7.296;2022-09-09T12:04:30;97642.22;;;18.98;100.00
4398;BME280;2213;49.720;7.296;2022-09-09T12:07:05;97637.22;;;19.02;100.00
4398;BME280;2213;49.720;7.296;2022-09-09T12:09:55;97627.97;;;19.04;100.00
4398;BME280;2213;49.720;7.296;2022-09-09T12:12:30;97624.53;;;19.09;100.00
4398;BME280;2213;49.720;7.296;2022-09-09T12:15:35;97622.75;;;19.15;100.00
4398;BME280;2213;49.720;7.296;2022-09-09T12:18:22;97618.84;;;19.22;100.00
4398;BME280;2213;49.720;7.296;2022-09-09T12:21:00;97618.34;;;19.25;100.00
4398;BME280;2213;49.720;7.296;2022-09-09T12:23:40;97623.13;;;19.28;100.00
4398;BME280;2213;49.720;7.296;2022-09-09T12:26:26;97620.91;;;19.15;100.00
4398;BME280;2213;49.720;7.296;2022-09-09T12:29:11;97646.25;;;19.06;100.00
4398;BME280;2213;49.720;7.296;2022-09-09T12:31:53;97670.69;;;19.08;100.00
4398;BME280;2213;49.720;7.296;2022-09-09T12:34:36;97680.38;;;18.97;100.00
4398;BME280;2213;49.720;7.296;2022-09-09T12:37:17;97700.34;;;18.83;100.00
4398;BME280;2213;49.720;7.296;2022-09-09T12:39:54;97675.38;;;18.74;100.00
4398;BME280;2213;49.720;7.296;2022-09-09T12:42:24;97676.78;;;18.60;100.00
4398;BME280;2213;49.720;7.296;2022-09-09T12:44:58;97680.16;;;18.55;100.00
4398;BME280;2213;49.720;7.296;2022-09-09T12:47:39;97670.53;;;18.49;100.00
4398;BME280;2213;49.720;7.296;2022-09-09T12:50:19;97667.66;;;18.51;100.00
4398;BME280;2213;49.720;7.296;2022-09-09T12:52:52;97664.84;;;18.41;100.00
4398;BME280;2213;49.720;7.296;2022-09-09T12:55:28;97649.47;;;18.38;100.00
4398;BME280;2213;49.720;7.296;2022-09-09T12:57:58;97646.41;;;18.46;100.00
4398;BME280;2213;49.720;7.296;2022-09-09T13:00:33;97645.44;;;18.52;100.00
4398;BME280;2213;49.720;7.296;2022-09-09T13:03:17;97647.66;;;18.60;100.00
4398;BME280;2213;49.720;7.296;2022-09-09T13:05:49;97650.09;;;18.67;100.00
4398;BME280;2213;49.720;7.296;2022-09-09T13:08:18;97657.28;;;18.71;100.00
4398;BME280;2213;49.720;7.296;2022-09-09T13:10:51;97672.75;;;18.79;100.00
4398;BME280;2213;49.720;7.296;2022-09-09T13:13:34;97676.22;;;18.80;100.00
4398;BME280;2213;49.720;7.296;2022-09-09T13:16:15;97689.34;;;18.70;100.00
4398;BME280;2213;49.720;7.296;2022-09-09T13:18:49;97685.38;;;18.50;100.00
4398;BME280;2213;49.720;7.296;2022-09-09T13:21:31;97675.63;;;18.34;100.00
4398;BME280;2213;49.720;7.296;2022-09-09T13:24:03;97662.56;;;18.28;100.00
4398;BME280;2213;49.720;7.296;2022-09-09T13:26:35;97662.00;;;18.26;100.00
4398;BME280;2213;49.720;7.296;2022-09-09T13:29:17;97658.41;;;18.32;100.00
4398;BME280;2213;49.720;7.296;2022-09-09T13:31:47;97644.91;;;18.33;100.00
4398;BME280;2213;49.720;7.296;2022-09-09T13:34:31;97643.06;;;18.34;100.00
4398;BME280;2213;49.720;7.296;2022-09-09T13:37:02;97648.63;;;18.32;100.00
4398;BME280;2213;49.720;7.296;2022-09-09T13:39:36;97647.06;;;18.36;100.00
4398;BME280;2213;49.720;7.296;2022-09-09T13:42:06;97644.16;;;18.38;100.00
4398;BME280;2213;49.720;7.296;2022-09-09T13:44:39;97639.69;;;18.38;100.00
4398;BME280;2213;49.720;7.296;2022-09-09T13:47:20;97640.97;;;18.36;100.00
4398;BME280;2213;49.720;7.296;2022-09-09T13:49:51;97644.91;;;18.33;100.00
4398;BME280;2213;49.720;7.296;2022-09-09T13:52:23;97644.84;;;18.28;100.00
4398;BME280;2213;49.720;7.296;2022-09-09T13:54:53;97643.97;;;18.23;100.00
4398;BME280;2213;49.720;7.296;2022-09-09T13:57:24;97632.03;;;18.20;100.00
4398;BME280;2213;49.720;7.296;2022-09-09T13:59:54;97634.00;;;18.08;100.00
4398;BME280;2213;49.720;7.296;2022-09-09T14:02:34;97645.84;;;18.05;100.00